Terminal Aerodrome Forecast
Issued by NWS Pendleton, OR

Home | Current Version | Previous Version | Text Only | Print | Product List | Glossary On
Versions: 1 2 3 4 5 6 7 8 9 10 11 12 13 14 15
000
FTUS46 KPDT 010000 AAA
TAFPDT
TAF AMD
KPDT 010041Z 0101/0124 10012KT P6SM BKN150
     FM010200 34008KT P6SM BKN150
     FM010400 11005KT P6SM SCT150 BKN180
     FM010700 14006KT P6SM SCT130 BKN150
     FM011200 19005KT P6SM SCT130 BKN150
     FM011800 33007KT P6SM SCT150 SCT200=

USA.gov is the U.S. government's official web portal to all federal, state and local government web resources and services.